Buffalo, MN (55313)

10:27 PM CDT on August 30, 2015 (GMT -0500)
Buffalo Hills | | Change Station
CLOSE
Current Station
Personal Weather Station
Location: Buffalo, MN
Elevation: 1004 ft
Nearby Weather Stations

Elev 1004 ft 45.18 °N, 93.87 °W | Updated 10 seconds ago

Clear
Clear
69.5 °F
Feels Like 69.5 °F
N
6.7
Wind Variable Wind from South
Gusts 10.4 mph

Today
High -- | Low -- °F
--% Chance of Precip.
Yesterday
High -- | Low -- °F
Precip. -- in
6:34 AM 7:56 PM
Full, 97% visible
Pressure 29.92 in
Visibility 10.0 miles
Clouds Clear
Dew Point 69 °F
Humidity 97%
Rainfall 0.00 in
Snow Depth Not available.
UV 0 out of 12
Pollen 10.20 out of 12
Air Quality Not available.
Flu Activity Not available.
METAR KCFE 310314Z AUTO 16005KT 10SM CLR 21/18 A2992 RMK AO2 T02070182
Pressure 29.92 in
Visibility 10.0 miles
Clouds Clear
Dew Point 69 °F
Humidity 97%
Rainfall 0.00 in
Snow Depth Not available.
UV 0 out of 12
Pollen 10.20 out of 12
Air Quality Not available.
Flu Activity Not available.
METAR KCFE 310314Z AUTO 16005KT 10SM CLR 21/18 A2992 RMK AO2 T02070182

10-Day Weather Forecast

×

Almanac

Astronomy

Aug. 30, 2015 Rise Set
Actual Time
Civil Twilight
Nautical Twilight
Astronomical Twilight
Moon
Length of Visible Light
Length of Day
Tomorrow will be .
, % of the Moon is Illuminated

Today's Extremes

State Highs State Lows

Community

WunderPhotos

Upload Photos

1,851,167 photos uploaded!

WunderBlogs® & News

Nearby

Air Quality

  Air Quality AQ Index Pollutant
Not available.

Snow Depth

Station Depth Elevation

Earthquake Activity

City Distance Mag. Time & Date
Minimum magnitude displayed is 2.5.

Coastal Water Temperatures

Place Temperature

Stations

Nearby Weather Stations

Station Location Temp. Windchill Dew Point Humidity Wind Precip. Elev Updated Type